createdAt,value
2018-11-13T00:00:29.415Z,101607.34
2018-11-13T00:02:59.355Z,101599.58
2018-11-13T00:05:29.027Z,101606.84
2018-11-13T00:07:58.519Z,101598.53
2018-11-13T00:10:27.879Z,101600.27
2018-11-13T00:12:57.252Z,101593.84
2018-11-13T00:15:26.668Z,101593.03
2018-11-13T00:17:55.967Z,101602.58
2018-11-13T00:20:25.375Z,101611.94
2018-11-13T00:22:56.769Z,101613.55
2018-11-13T00:25:26.071Z,101618.48
2018-11-13T00:27:55.389Z,101618.30
2018-11-13T00:30:25.336Z,101626.42
2018-11-13T00:32:54.482Z,101627.30
2018-11-13T00:35:23.918Z,101634.52
2018-11-13T00:37:53.417Z,101630.44
2018-11-13T00:40:22.723Z,101634.42
2018-11-13T00:42:52.083Z,101639.55
2018-11-13T00:45:21.842Z,101642.66
2018-11-13T00:47:51.129Z,101645.52
2018-11-13T00:50:21.144Z,101644.16
2018-11-13T00:52:52.064Z,101646.13
2018-11-13T00:55:21.423Z,101644.35
2018-11-13T00:57:51.221Z,101640.40
2018-11-13T01:00:21.956Z,101639.39
2018-11-13T01:02:51.507Z,101639.59
2018-11-13T01:05:21.684Z,101635.25
2018-11-13T01:07:52.139Z,101640.34
2018-11-13T01:10:22.244Z,101642.94
2018-11-13T01:12:51.811Z,101636.23
2018-11-13T01:15:21.795Z,101644.61
2018-11-13T01:17:51.455Z,101641.06
2018-11-13T01:20:21.449Z,101648.84
2018-11-13T01:22:50.904Z,101641.16
2018-11-13T01:25:20.218Z,101641.00
2018-11-13T01:27:49.507Z,101655.36
2018-11-13T01:30:18.937Z,101664.36
2018-11-13T01:32:48.222Z,101667.89
2018-11-13T01:35:18.703Z,101662.53
2018-11-13T01:37:48.126Z,101659.45
2018-11-13T01:40:19.864Z,101652.36
2018-11-13T01:42:49.257Z,101647.05
2018-11-13T01:45:19.713Z,101643.31
2018-11-13T01:47:49.052Z,101647.97
2018-11-13T01:50:19.000Z,101644.77
2018-11-13T01:52:48.297Z,101646.16
2018-11-13T01:55:18.018Z,101654.77
2018-11-13T01:57:47.462Z,101649.04
2018-11-13T02:00:19.690Z,101659.98
2018-11-13T02:02:50.261Z,101661.69
2018-11-13T02:05:20.801Z,101661.47
2018-11-13T02:07:50.575Z,101653.28
2018-11-13T02:10:20.313Z,101656.63
2018-11-13T02:12:50.045Z,101658.69
2018-11-13T02:15:19.864Z,101654.28
2018-11-13T02:17:49.254Z,101662.09
2018-11-13T02:20:20.110Z,101655.08
2018-11-13T02:22:49.478Z,101647.89
2018-11-13T02:25:19.864Z,101649.36
2018-11-13T02:27:49.593Z,101650.34
2018-11-13T02:30:20.424Z,101634.55
2018-11-13T02:32:50.434Z,101628.58
2018-11-13T02:35:20.043Z,101629.81
2018-11-13T02:37:49.338Z,101630.78
2018-11-13T02:40:19.053Z,101628.61
2018-11-13T02:42:48.331Z,101626.30
2018-11-13T02:45:19.117Z,101625.80
2018-11-13T02:47:48.531Z,101621.88
2018-11-13T02:50:21.234Z,101607.69
2018-11-13T02:52:51.228Z,101613.59
2018-11-13T02:55:21.076Z,101609.23
2018-11-13T02:57:50.428Z,101624.94
2018-11-13T03:00:21.202Z,101629.36
2018-11-13T03:02:50.902Z,101628.58
2018-11-13T03:05:21.299Z,101628.93
2018-11-13T03:07:50.641Z,101625.95
2018-11-13T03:10:20.471Z,101616.76
2018-11-13T03:12:49.881Z,101616.70
2018-11-13T03:15:20.878Z,101607.43
2018-11-13T03:17:50.253Z,101608.12
2018-11-13T03:20:20.399Z,101611.16
2018-11-13T03:22:50.366Z,101611.25
2018-11-13T03:25:20.988Z,101615.33
2018-11-13T03:27:50.299Z,101619.16
2018-11-13T03:30:23.750Z,101620.23
2018-11-13T03:32:53.895Z,101626.11
2018-11-13T03:35:23.194Z,101625.09
2018-11-13T03:37:52.513Z,101625.92
2018-11-13T03:40:21.856Z,101635.92
2018-11-13T03:42:51.690Z,101636.36
2018-11-13T03:45:21.326Z,101637.25
2018-11-13T03:47:50.700Z,101646.58
2018-11-13T03:50:21.227Z,101653.53
2018-11-13T03:52:51.107Z,101645.41
2018-11-13T03:55:21.063Z,101639.59
2018-11-13T03:57:51.063Z,101638.26
2018-11-13T04:00:22.713Z,101630.50
2018-11-13T04:02:52.088Z,101635.54
2018-11-13T04:05:22.148Z,101633.77
2018-11-13T04:07:53.109Z,101618.39
2018-11-13T04:10:23.269Z,101611.03
2018-11-13T04:12:52.564Z,101614.70
2018-11-13T04:15:22.963Z,101621.97
2018-11-13T04:17:52.252Z,101629.03
2018-11-13T04:20:22.334Z,101634.23
2018-11-13T04:22:51.770Z,101632.53
2018-11-13T04:25:21.102Z,101641.30
2018-11-13T04:27:50.404Z,101639.50
2018-11-13T04:30:20.254Z,101628.16
2018-11-13T04:32:49.555Z,101622.03
2018-11-13T04:35:19.196Z,101621.58
2018-11-13T04:37:48.526Z,101621.42
2018-11-13T04:40:19.150Z,101622.31
2018-11-13T04:42:49.827Z,101634.23
2018-11-13T04:45:20.382Z,101640.45
2018-11-13T04:47:50.609Z,101648.73
2018-11-13T04:50:21.011Z,101652.32
2018-11-13T04:52:50.286Z,101654.13
2018-11-13T04:55:20.049Z,101662.09
2018-11-13T04:57:49.955Z,101658.06
2018-11-13T05:00:20.683Z,101665.95
2018-11-13T05:02:50.060Z,101659.86
2018-11-13T05:05:20.037Z,101664.55
2018-11-13T05:07:53.554Z,101674.25
2018-11-13T05:10:23.215Z,101668.16
2018-11-13T05:12:52.590Z,101672.59
2018-11-13T05:15:21.916Z,101674.61
2018-11-13T05:17:51.226Z,101683.45
2018-11-13T05:20:20.588Z,101691.95
2018-11-13T05:22:49.889Z,101691.89
2018-11-13T05:25:20.651Z,101687.20
2018-11-13T05:27:49.911Z,101691.25
2018-11-13T05:30:23.122Z,101697.03
2018-11-13T05:32:52.585Z,101692.30
2018-11-13T05:35:22.603Z,101696.78
2018-11-13T05:37:52.010Z,101691.20
2018-11-13T05:40:22.829Z,101692.80
2018-11-13T05:42:52.173Z,101681.59
2018-11-13T05:45:25.731Z,101690.58
2018-11-13T05:47:55.425Z,101678.86
2018-11-13T05:50:24.738Z,101682.78
2018-11-13T05:52:54.866Z,101686.27
2018-11-13T05:55:24.222Z,101686.97
2018-11-13T05:57:53.498Z,101689.44
2018-11-13T06:00:27.514Z,101683.60
2018-11-13T06:02:57.146Z,101690.34
2018-11-13T06:05:26.485Z,101690.94
2018-11-13T06:07:56.334Z,101702.66
2018-11-13T06:10:25.612Z,101693.86
2018-11-13T06:12:54.967Z,101686.30
2018-11-13T06:15:24.291Z,101665.41
2018-11-13T06:17:53.638Z,101664.78
2018-11-13T06:20:22.905Z,101678.80
2018-11-13T06:22:52.266Z,101679.55
2018-11-13T06:25:21.528Z,101686.14
2018-11-13T06:27:50.838Z,101691.66
2018-11-13T06:30:23.111Z,101693.56
2018-11-13T06:32:52.848Z,101701.95
2018-11-13T06:35:22.129Z,101695.77
2018-11-13T06:37:51.418Z,101694.22
2018-11-13T06:40:20.747Z,101706.41
2018-11-13T06:42:50.010Z,101703.53
2018-11-13T06:45:20.879Z,101710.91
2018-11-13T06:47:50.627Z,101725.05
2018-11-13T06:50:19.988Z,101727.73
2018-11-13T06:52:50.271Z,101727.11
2018-11-13T06:55:25.483Z,101724.31
2018-11-13T06:57:54.841Z,101721.42
2018-11-13T07:00:24.129Z,101742.84
2018-11-13T07:02:53.583Z,101750.49
2018-11-13T07:05:22.959Z,101742.34
2018-11-13T07:07:58.880Z,101738.77
2018-11-13T07:10:29.522Z,101737.30
2018-11-13T07:12:59.525Z,101739.22
2018-11-13T07:15:30.036Z,101746.27
2018-11-13T07:18:00.573Z,101745.61
2018-11-13T07:20:31.114Z,101745.81
2018-11-13T07:23:00.380Z,101740.44
2018-11-13T07:25:29.839Z,101738.36
2018-11-13T07:27:59.094Z,101730.67
2018-11-13T07:30:28.645Z,101731.07
2018-11-13T07:32:58.218Z,101729.25
2018-11-13T07:35:27.487Z,101745.81
2018-11-13T07:37:58.176Z,101744.45
2018-11-13T07:40:27.562Z,101744.59
2018-11-13T07:42:57.180Z,101737.52
2018-11-13T07:45:26.492Z,101732.91
2018-11-13T07:47:55.937Z,101734.61
2018-11-13T07:50:25.357Z,101733.44
2018-11-13T07:52:54.662Z,101729.98
2018-11-13T07:55:24.057Z,101730.27
2018-11-13T07:57:53.359Z,101738.06
2018-11-13T08:00:23.946Z,101730.64
2018-11-13T08:02:54.822Z,101740.50
2018-11-13T08:05:24.243Z,101737.66
2018-11-13T08:07:53.545Z,101739.60
2018-11-13T08:10:22.835Z,101754.11
2018-11-13T08:12:52.134Z,101746.25
2018-11-13T08:15:21.398Z,101739.01
2018-11-13T08:17:51.007Z,101742.14
2018-11-13T08:20:20.360Z,101747.00
2018-11-13T08:22:49.691Z,101753.88
2018-11-13T08:25:19.065Z,101762.55
2018-11-13T08:27:48.335Z,101768.08
2018-11-13T08:30:19.078Z,101775.71
2018-11-13T08:32:48.819Z,101778.39
2018-11-13T08:35:18.104Z,101786.75
2018-11-13T08:37:47.406Z,101777.02
2018-11-13T08:40:18.221Z,101782.36
2018-11-13T08:42:47.997Z,101769.75
2018-11-13T08:45:17.593Z,101760.56
2018-11-13T08:47:46.907Z,101757.88
2018-11-13T08:50:16.823Z,101777.31
2018-11-13T08:52:46.695Z,101753.64
2018-11-13T08:55:16.389Z,101757.88
2018-11-13T08:57:45.806Z,101772.89
2018-11-13T09:00:17.212Z,101770.66
2018-11-13T09:02:47.071Z,101762.97
2018-11-13T09:05:16.586Z,101774.16
2018-11-13T09:07:46.262Z,101772.67
2018-11-13T09:10:17.365Z,101772.09
2018-11-13T09:12:47.179Z,101772.61
2018-11-13T09:15:17.906Z,101768.06
2018-11-13T09:17:47.222Z,101771.17
2018-11-13T09:20:18.383Z,101775.62
2018-11-13T09:22:47.925Z,101774.81
2018-11-13T09:25:19.523Z,101772.15
2018-11-13T09:27:48.833Z,101769.54
2018-11-13T09:30:19.523Z,101768.27
2018-11-13T09:32:49.321Z,101772.38
2018-11-13T09:35:19.329Z,101771.16
2018-11-13T09:37:48.596Z,101770.23
2018-11-13T09:40:20.224Z,101772.55
2018-11-13T09:42:51.285Z,101769.80
2018-11-13T09:45:20.661Z,101779.10
2018-11-13T09:47:50.042Z,101773.48
2018-11-13T09:50:20.450Z,101772.89
2018-11-13T09:52:51.253Z,101768.61
2018-11-13T09:55:21.782Z,101776.63
2018-11-13T09:57:51.200Z,101767.91
2018-11-13T10:00:26.552Z,101763.05
2018-11-13T10:02:58.658Z,101770.47
2018-11-13T10:05:27.608Z,101770.33
2018-11-13T10:07:57.176Z,101781.92
2018-11-13T10:10:27.231Z,101786.63
2018-11-13T10:12:56.651Z,101786.32
2018-11-13T10:15:28.741Z,101795.02
2018-11-13T10:17:59.503Z,101798.51
2018-11-13T10:20:29.051Z,101794.52
2018-11-13T10:22:59.251Z,101789.27
2018-11-13T10:25:28.689Z,101785.48
2018-11-13T10:27:58.022Z,101790.27
2018-11-13T10:30:27.328Z,101788.03
2018-11-13T10:32:56.656Z,101788.08
2018-11-13T10:35:26.880Z,101785.98
2018-11-13T10:37:56.179Z,101803.79
2018-11-13T10:40:26.253Z,101777.52
2018-11-13T10:42:55.460Z,101793.89
2018-11-13T10:45:26.467Z,101790.97
2018-11-13T10:47:55.847Z,101793.10
2018-11-13T10:50:26.274Z,101791.58
2018-11-13T10:52:56.172Z,101800.61
2018-11-13T10:55:25.542Z,101795.64
2018-11-13T10:57:55.041Z,101798.28
2018-11-13T11:00:32.867Z,101804.91
2018-11-13T11:03:09.651Z,101812.66
2018-11-13T11:05:38.970Z,101818.60
2018-11-13T11:08:08.330Z,101816.12
2018-11-13T11:10:37.627Z,101822.80
2018-11-13T11:13:07.159Z,101829.42
2018-11-13T11:15:36.414Z,101828.49
2018-11-13T11:18:05.780Z,101821.06
2018-11-13T11:20:35.501Z,101818.01
2018-11-13T11:23:04.831Z,101818.59
2018-11-13T11:25:34.228Z,101814.03
2018-11-13T11:28:03.802Z,101812.19
2018-11-13T11:30:33.095Z,101805.07
2018-11-13T11:33:02.460Z,101814.06
2018-11-13T11:35:31.794Z,101819.02
2018-11-13T11:38:01.095Z,101825.27
2018-11-13T11:40:30.464Z,101826.49
2018-11-13T11:43:00.455Z,101826.32
2018-11-13T11:45:29.780Z,101828.88
2018-11-13T11:47:59.082Z,101831.69
2018-11-13T11:50:28.448Z,101838.49
2018-11-13T11:52:57.784Z,101839.03
2018-11-13T11:55:27.061Z,101842.52
2018-11-13T11:57:56.424Z,101840.63
2018-11-13T12:00:30.797Z,101835.41
2018-11-13T12:03:00.308Z,101843.02
2018-11-13T12:05:29.939Z,101831.56
2018-11-13T12:07:59.295Z,101841.14
2018-11-13T12:10:28.636Z,101845.18
2018-11-13T12:12:58.197Z,101839.95
2018-11-13T12:15:27.526Z,101839.91
2018-11-13T12:17:56.863Z,101834.77
2018-11-13T12:20:29.147Z,101840.37
2018-11-13T12:22:59.105Z,101841.42
2018-11-13T12:25:28.729Z,101843.96
2018-11-13T12:27:58.271Z,101840.75
2018-11-13T12:30:27.745Z,101843.83
2018-11-13T12:32:57.518Z,101848.50
2018-11-13T12:35:27.078Z,101847.44
2018-11-13T12:37:56.513Z,101845.22
2018-11-13T12:40:26.438Z,101853.06
2018-11-13T12:42:55.735Z,101847.09
2018-11-13T12:45:25.181Z,101840.17
2018-11-13T12:47:54.441Z,101835.84
2018-11-13T12:50:23.745Z,101827.45
2018-11-13T12:52:53.089Z,101829.66
2018-11-13T12:55:23.614Z,101830.29
2018-11-13T12:57:53.170Z,101830.00
2018-11-13T13:00:24.916Z,101818.14
2018-11-13T13:02:54.637Z,101826.70
2018-11-13T13:05:23.990Z,101827.80
2018-11-13T13:07:53.683Z,101820.28
2018-11-13T13:10:23.078Z,101824.90
2018-11-13T13:12:52.389Z,101830.07
2018-11-13T13:15:21.725Z,101830.37
2018-11-13T13:17:51.019Z,101836.55
2018-11-13T13:20:22.826Z,101839.11
2018-11-13T13:22:52.384Z,101833.77
2018-11-13T13:25:23.227Z,101844.29
2018-11-13T13:27:52.535Z,101834.14
2018-11-13T13:30:23.267Z,101839.59
2018-11-13T13:32:52.741Z,101839.87
2018-11-13T13:36:10.095Z,101847.97
2018-11-13T13:38:39.472Z,101853.94
2018-11-13T13:41:08.724Z,101865.62
2018-11-13T13:43:37.991Z,101854.53
2018-11-13T13:46:07.663Z,101859.78
2018-11-13T13:48:36.927Z,101858.23
2018-11-13T13:51:06.555Z,101855.70
2018-11-13T13:53:35.853Z,101866.20
2018-11-13T13:56:05.305Z,101866.16
2018-11-13T13:58:34.613Z,101862.58
2018-11-13T14:01:04.050Z,101867.83
2018-11-13T14:03:34.783Z,101865.19
2018-11-13T14:06:02.880Z,101868.02
2018-11-13T14:08:32.557Z,101864.98
2018-11-13T14:11:01.846Z,101868.53
2018-11-13T14:13:31.180Z,101875.66
2018-11-13T14:16:00.530Z,101864.53
2018-11-13T14:18:29.821Z,101872.73
2018-11-13T14:20:59.183Z,101877.87
2018-11-13T14:23:28.416Z,101879.59
2018-11-13T14:25:57.779Z,101887.61
2018-11-13T14:28:27.097Z,101892.13
2018-11-13T14:30:56.871Z,101894.20
2018-11-13T14:33:26.418Z,101901.02
2018-11-13T14:35:55.863Z,101895.00
2018-11-13T14:38:25.170Z,101898.14
2018-11-13T14:40:54.487Z,101896.42
2018-11-13T14:43:23.773Z,101893.64
2018-11-13T14:45:53.232Z,101896.95
2018-11-13T14:48:22.582Z,101894.45
2018-11-13T14:50:51.961Z,101911.92
2018-11-13T14:53:21.839Z,101912.27
2018-11-13T14:55:51.148Z,101912.98
2018-11-13T14:58:20.485Z,101925.37
2018-11-13T15:00:49.885Z,101928.81
2018-11-13T15:03:19.332Z,101930.56
2018-11-13T15:05:48.609Z,101935.68
2018-11-13T15:08:18.005Z,101938.05
2018-11-13T15:10:50.280Z,101950.49
2018-11-13T15:13:20.655Z,101946.09
2018-11-13T15:15:49.996Z,101952.33
2018-11-13T15:18:19.368Z,101958.58
2018-11-13T15:20:49.789Z,101964.72
2018-11-13T15:23:19.114Z,101960.34
2018-11-13T15:25:48.443Z,101966.36
2018-11-13T15:28:18.022Z,101969.28
2018-11-13T15:30:49.545Z,101971.20
2018-11-13T15:33:23.762Z,101976.80
2018-11-13T15:35:53.109Z,101981.84
2018-11-13T15:38:22.420Z,101974.25
2018-11-13T15:40:51.808Z,101982.02
2018-11-13T15:43:21.132Z,101981.34
2018-11-13T15:45:50.420Z,101984.86
2018-11-13T15:48:20.019Z,101980.99
2018-11-13T15:50:49.315Z,101989.36
2018-11-13T15:53:18.664Z,101989.66
2018-11-13T15:55:48.452Z,101994.58
2018-11-13T15:58:17.799Z,102005.45
2018-11-13T16:00:47.142Z,102009.67
2018-11-13T16:03:20.497Z,102011.62
2018-11-13T16:05:51.058Z,102010.47
2018-11-13T16:08:20.392Z,102010.86
2018-11-13T16:10:50.219Z,102011.21
2018-11-13T16:13:19.577Z,102018.30
2018-11-13T16:15:48.890Z,102015.58
2018-11-13T16:18:19.956Z,102022.08
2018-11-13T16:20:49.267Z,102026.87
2018-11-13T16:23:18.553Z,102033.59
2018-11-13T16:25:47.855Z,102034.16
2018-11-13T16:28:17.217Z,102029.80
2018-11-13T16:30:46.728Z,102035.59
2018-11-13T16:33:16.194Z,102037.16
2018-11-13T16:35:45.532Z,102043.38
2018-11-13T16:38:14.959Z,102047.67
2018-11-13T16:40:44.234Z,102048.03
2018-11-13T16:43:13.524Z,102052.97
2018-11-13T16:45:42.800Z,102051.03
2018-11-13T16:48:12.173Z,102050.25
2018-11-13T16:50:42.325Z,102054.47
2018-11-13T16:53:11.723Z,102057.89
2018-11-13T16:55:46.728Z,102064.20
2018-11-13T16:58:16.804Z,102068.69
2018-11-13T17:00:46.250Z,102067.55
2018-11-13T17:03:15.494Z,102069.34
2018-11-13T17:05:44.885Z,102074.90
2018-11-13T17:08:14.128Z,102078.80
2018-11-13T17:10:44.230Z,102074.10
2018-11-13T17:13:13.522Z,102075.55
2018-11-13T17:15:42.839Z,102076.55
2018-11-13T17:18:13.726Z,102081.34
2018-11-13T17:20:42.383Z,102080.84
2018-11-13T17:23:11.702Z,102078.05
2018-11-13T17:25:41.018Z,102081.67
2018-11-13T17:28:10.371Z,102086.30
2018-11-13T17:30:39.750Z,102083.51
2018-11-13T17:33:10.809Z,102098.02
2018-11-13T17:35:40.175Z,102099.26
2018-11-13T17:38:09.524Z,102093.77
2018-11-13T17:40:39.122Z,102106.44
2018-11-13T17:43:08.855Z,102105.47
2018-11-13T17:45:40.345Z,102108.50
2018-11-13T17:48:11.933Z,102108.38
2018-11-13T17:50:42.657Z,102107.34
2018-11-13T17:53:12.688Z,102114.75
2018-11-13T17:55:42.196Z,102117.61
2018-11-13T17:58:14.185Z,102120.63
2018-11-13T18:00:44.915Z,102126.99
2018-11-13T18:03:15.702Z,102128.22
2018-11-13T18:05:45.888Z,102136.89
2018-11-13T18:08:15.190Z,102131.63
2018-11-13T18:10:45.722Z,102131.52
2018-11-13T18:13:15.192Z,102136.53
2018-11-13T18:15:44.584Z,102143.92
2018-11-13T18:18:14.358Z,102147.80
2018-11-13T18:20:43.683Z,102141.45
2018-11-13T18:23:13.097Z,102140.12
2018-11-13T18:25:42.475Z,102140.91
2018-11-13T18:28:12.130Z,102145.45
2018-11-13T18:30:41.450Z,102137.25
2018-11-13T18:33:10.865Z,102143.09
2018-11-13T18:35:40.832Z,102146.66
2018-11-13T18:38:12.141Z,102149.91
2018-11-13T18:40:41.496Z,102145.72
2018-11-13T18:43:12.084Z,102151.31
2018-11-13T18:45:42.268Z,102154.95
2018-11-13T18:48:11.636Z,102153.73
2018-11-13T18:50:42.522Z,102154.02
2018-11-13T18:53:12.017Z,102157.16
2018-11-13T18:55:41.854Z,102162.18
2018-11-13T18:58:11.663Z,102164.06
2018-11-13T19:00:41.707Z,102170.34
2018-11-13T19:03:12.660Z,102179.75
2018-11-13T19:05:42.029Z,102182.05
2018-11-13T19:08:11.505Z,102183.86
2018-11-13T19:10:43.220Z,102192.91
2018-11-13T19:13:16.673Z,102188.48
2018-11-13T19:15:49.946Z,102185.48
2018-11-13T19:18:20.450Z,102198.39
2018-11-13T19:20:50.074Z,102192.09
2018-11-13T19:23:20.440Z,102199.52
2018-11-13T19:25:49.975Z,102196.48
2018-11-13T19:28:19.460Z,102197.16
2018-11-13T19:30:49.372Z,102203.80
2018-11-13T19:33:19.015Z,102213.57
2018-11-13T19:35:48.700Z,102219.00
2018-11-13T19:38:18.120Z,102221.13
2018-11-13T19:40:48.017Z,102219.92
2018-11-13T19:43:17.459Z,102225.75
2018-11-13T19:45:47.042Z,102232.84
2018-11-13T19:48:16.797Z,102242.94
2018-11-13T19:50:46.327Z,102235.34
2018-11-13T19:53:16.168Z,102229.23
2018-11-13T19:55:46.060Z,102239.53
2018-11-13T19:58:15.627Z,102238.72
2018-11-13T20:00:45.136Z,102244.05
2018-11-13T20:03:14.544Z,102247.45
2018-11-13T20:05:44.675Z,102245.47
2018-11-13T20:08:14.122Z,102248.70
2018-11-13T20:10:43.627Z,102257.86
2018-11-13T20:13:19.457Z,102254.95
2018-11-13T20:15:48.847Z,102255.49
2018-11-13T20:18:18.212Z,102259.95
2018-11-13T20:20:47.928Z,102256.25
2018-11-13T20:23:17.332Z,102256.19
2018-11-13T20:25:46.677Z,102257.84
2018-11-13T20:28:16.216Z,102261.19
2018-11-13T20:30:45.644Z,102254.03
2018-11-13T20:33:15.039Z,102277.63
2018-11-13T20:35:44.375Z,102275.58
2018-11-13T20:38:13.744Z,102277.76
2018-11-13T20:40:43.112Z,102278.33
2018-11-13T20:43:13.138Z,102286.81
2018-11-13T20:45:42.678Z,102287.25
2018-11-13T20:48:12.097Z,102288.28
2018-11-13T20:50:41.562Z,102291.30
2018-11-13T20:53:10.982Z,102292.16
2018-11-13T20:55:40.427Z,102284.52
2018-11-13T20:58:09.847Z,102288.91
2018-11-13T21:00:39.250Z,102289.75
2018-11-13T21:03:08.669Z,102285.60
2018-11-13T21:05:38.660Z,102286.13
2018-11-13T21:08:08.402Z,102287.69
2018-11-13T21:10:39.136Z,102288.44
2018-11-13T21:13:09.532Z,102305.28
2018-11-13T21:15:39.004Z,102299.23
2018-11-13T21:18:08.387Z,102298.86
2018-11-13T21:20:37.830Z,102314.75
2018-11-13T21:23:07.227Z,102309.66
2018-11-13T21:25:36.972Z,102304.83
2018-11-13T21:28:06.561Z,102296.45
2018-11-13T21:30:35.928Z,102295.16
2018-11-13T21:33:06.014Z,102304.19
2018-11-13T21:35:35.521Z,102316.47
2018-11-13T21:38:05.097Z,102314.12
2018-11-13T21:40:34.632Z,102324.73
2018-11-13T21:43:04.036Z,102322.44
2018-11-13T21:45:33.434Z,102316.89
2018-11-13T21:48:02.872Z,102321.89
2018-11-13T21:50:32.207Z,102324.50
2018-11-13T21:53:01.632Z,102328.05
2018-11-13T21:55:31.111Z,102331.63
2018-11-13T21:58:00.506Z,102335.65
2018-11-13T22:00:32.544Z,102334.03
2018-11-13T22:03:03.919Z,102336.89
2018-11-13T22:05:36.235Z,102335.52
2018-11-13T22:08:05.806Z,102347.91
2018-11-13T22:10:35.147Z,102349.72
2018-11-13T22:13:04.602Z,102361.92
2018-11-13T22:15:34.051Z,102362.05
2018-11-13T22:18:03.556Z,102355.25
2018-11-13T22:20:33.098Z,102361.92
2018-11-13T22:23:02.532Z,102358.55
2018-11-13T22:25:31.850Z,102354.59
2018-11-13T22:28:01.716Z,102360.64
2018-11-13T22:30:32.235Z,102370.86
2018-11-13T22:33:01.693Z,102382.95
2018-11-13T22:35:31.040Z,102391.81
2018-11-13T22:38:00.422Z,102384.17
2018-11-13T22:40:29.944Z,102385.78
2018-11-13T22:43:00.107Z,102383.80
2018-11-13T22:45:30.101Z,102385.30
2018-11-13T22:47:59.687Z,102387.13
2018-11-13T22:50:30.805Z,102378.13
2018-11-13T22:53:00.116Z,102389.58
2018-11-13T22:55:29.451Z,102388.22
2018-11-13T22:58:00.089Z,102389.95
2018-11-13T23:00:40.990Z,102391.31
2018-11-13T23:03:12.265Z,102400.20
2018-11-13T23:05:42.435Z,102398.36
2018-11-13T23:08:13.241Z,102393.31
2018-11-13T23:10:42.577Z,102396.14
2018-11-13T23:13:12.059Z,102392.69
2018-11-13T23:15:41.553Z,102397.00
2018-11-13T23:18:11.006Z,102394.29
2018-11-13T23:20:40.366Z,102392.81
2018-11-13T23:23:09.767Z,102399.09
2018-11-13T23:25:39.069Z,102398.84
2018-11-13T23:28:08.452Z,102398.20
2018-11-13T23:30:38.277Z,102402.90
2018-11-13T23:33:08.153Z,102408.08
2018-11-13T23:35:37.706Z,102407.09
2018-11-13T23:38:07.002Z,102412.87
2018-11-13T23:40:36.300Z,102413.63
2018-11-13T23:43:05.739Z,102429.39
2018-11-13T23:45:35.114Z,102428.41
2018-11-13T23:48:04.409Z,102424.95
2018-11-13T23:50:33.770Z,102423.72
2018-11-13T23:53:03.773Z,102429.02
2018-11-13T23:55:33.158Z,102426.80
2018-11-13T23:58:02.572Z,102429.02
